Details From KSAN - San Diego Intl
To YBMA - Mount Isa
Flight Number -
Tags Decoded
Created
Modified
Stats Distance 6,722 nm / 12,448 km
Max Altitude 0 ft / 0 m
Waypoints 9
Social Downloads 0
Likes 0
Share VATSIM

Download

Looking for another format? Having issues loading an existing format? Contact us
Advertisement - Login to hide

Notes

Decoded

Route

KSAN ESCRO DANKA BOMPS NEWEL BO MANOT MEKAD YBMA

ID Type Via Altitude Latitude Longitude Leg Dist Tot Dist Heading (true) Name
O KSAN APT - 0 ft / 0 m 32.73712˚ -117.20435˚ - 0 nm - -
ESCRO FIX - 0 ft / 0 m 29.79678˚ -133.25706˚ 841 nm 841 nm 262° / 254° -
DANKA FIX - 0 ft / 0 m 24.65358˚ -149.19061˚ 904 nm 1746 nm 254° / 247° -
BOMPS FIX - 0 ft / 0 m 18.59528˚ -162.09556˚ 806 nm 2552 nm 246° / 241° -
NEWEL FIX - 0 ft / 0 m 10.44667˚ -175.00000˚ 895 nm 3447 nm 239° / 235° -
BO NDB - 0 ft / 0 m 1.37722˚ 173.14278˚ 892 nm 4340 nm 233° / 232° -
MANOT FIX - 0 ft / 0 m -6.71833˚ 162.21167˚ 815 nm 5156 nm 233° / 234° -
MEKAD FIX - 0 ft / 0 m -13.39722˚ 152.70056˚ 690 nm 5846 nm 234° / 235° -
O YBMA APT - 0 ft / 0 m -20.65894˚ 139.48442˚ 874 nm 6721 nm 238° / 242° -

Altitude Profile

Advertisement - Login to hide

Weather


0- 5 10 15 20 25 30 35+ Temperature / ° C

Clouds and Precipitation
Forecast for 2018-05-22 18:00 UTC. Updated 5 hours ago

Ground ~20,000 ft ~40,000 ft Winds

KSAN

Details ICAO KSAN (SAN)
Name San Diego Intl
Region United States
Timezone America/Los_Angeles (UTC-7.0)
Stats Elevation 17 ft / 5 m (AMSL)
Location 32.733556° -117.189658°
Runways 1
Magnetic Variation 11.488° E

METAR

KSAN 222151Z 22010KT 10SM FEW025 SCT034 18/10 A2994 RMK AO2 SLP137 T01830100

Decode

TAF

TAF AMD KSAN 222141Z 2222/2324 24010KT P6SM SCT030 FM230300 27004KT P6SM SCT018 BKN025 FM230700 24004KT P6SM OVC012 FM231600 25004KT P6SM BKN020 FM231900 28010KT P6SM SCT025

Decode

Departure Runways

ID Width Length Bearing (true) Bearing (mag) Surface Threshold Offset Overrun Length
09 200 ft / 61 m 9,387 ft / 2,861 m 106.07° 94.58° Asphalt 699 ft / 213 m 269 ft / 82 m
27 200 ft / 61 m 9,387 ft / 2,861 m 286.08° 274.59° Asphalt 1,811 ft / 552 m 0 ft / 0 m

YBMA

Details ICAO YBMA (ISA)
Name Mount Isa
Region Australia
Timezone Australia/Brisbane (UTC+10.0)
Stats Elevation 1,121 ft / 342 m (AMSL)
Location -20.666369° 139.488443°
Runways 1
Magnetic Variation 5.671° E

METAR

YBMA 222200Z AUTO 15009KT 9999 // NCD 16/00 Q1021

Decode

TAF

Not found

Destination Runways

ID Width Length Bearing (true) Bearing (mag) Surface Threshold Offset Overrun Length
16 148 ft / 45 m 8,859 ft / 2,700 m 167.80° 162.13° Asphalt 210 ft / 64 m 79 ft / 24 m
34 148 ft / 45 m 8,859 ft / 2,700 m 347.80° 342.13° Asphalt 213 ft / 65 m 49 ft / 15 m

Popular Alternatives